createdAt,value
2018-01-23T00:01:56.913Z,-0.60
2018-01-23T00:04:25.233Z,-0.60
2018-01-23T00:06:53.632Z,-0.60
2018-01-23T00:09:21.275Z,-0.60
2018-01-23T00:11:49.756Z,-0.60
2018-01-23T00:14:18.135Z,-0.60
2018-01-23T00:16:45.770Z,-0.60
2018-01-23T00:19:13.433Z,-0.60
2018-01-23T00:21:41.071Z,-0.60
2018-01-23T00:24:08.732Z,-0.60
2018-01-23T00:26:36.344Z,-0.60
2018-01-23T00:29:03.950Z,-0.60
2018-01-23T00:31:32.363Z,-0.60
2018-01-23T00:33:59.999Z,-0.60
2018-01-23T00:36:27.649Z,-0.60
2018-01-23T00:38:55.277Z,-0.60
2018-01-23T00:41:22.917Z,-0.50
2018-01-23T00:43:50.557Z,-0.60
2018-01-23T00:46:18.971Z,-0.60
2018-01-23T00:48:46.608Z,-0.60
2018-01-23T00:51:15.022Z,-0.60
2018-01-23T00:53:42.694Z,-0.60
2018-01-23T00:56:10.308Z,-0.50
2018-01-23T00:58:37.968Z,-0.50
2018-01-23T01:01:05.595Z,-0.50
2018-01-23T01:03:33.271Z,-0.50
2018-01-23T01:06:00.895Z,-0.50
2018-01-23T01:08:29.277Z,-0.50
2018-01-23T01:10:57.687Z,-0.50
2018-01-23T01:13:25.353Z,-0.50
2018-01-23T01:15:53.754Z,-0.50
2018-01-23T01:18:21.364Z,-0.50
2018-01-23T01:20:49.006Z,-0.60
2018-01-23T01:23:16.655Z,-0.50
2018-01-23T01:25:44.279Z,-0.50
2018-01-23T01:28:12.697Z,-0.50
2018-01-23T01:30:40.326Z,-0.60
2018-01-23T01:33:08.733Z,-0.50
2018-01-23T01:35:36.367Z,-0.50
2018-01-23T01:38:04.022Z,-0.50
2018-01-23T01:40:31.634Z,-0.50
2018-01-23T01:42:59.286Z,-0.50
2018-01-23T01:45:26.948Z,-0.50
2018-01-23T01:47:54.585Z,-0.50
2018-01-23T01:50:22.226Z,-0.50
2018-01-23T01:52:49.846Z,-0.50
2018-01-23T01:55:18.272Z,-0.50
2018-01-23T01:57:45.907Z,-0.50
2018-01-23T02:00:13.562Z,-0.50
2018-01-23T02:02:41.980Z,-0.50
2018-01-23T02:05:09.635Z,-0.50
2018-01-23T02:07:37.316Z,-0.50
2018-01-23T02:10:04.970Z,-0.50
2018-01-23T02:12:32.602Z,-0.50
2018-01-23T02:15:01.014Z,-0.50
2018-01-23T02:17:28.683Z,-0.50
2018-01-23T02:19:56.354Z,-0.50
2018-01-23T02:22:24.002Z,-0.50
2018-01-23T02:24:52.409Z,-0.50
2018-01-23T02:27:20.061Z,-0.50
2018-01-23T02:29:47.709Z,-0.50
2018-01-23T02:32:16.111Z,-0.50
2018-01-23T02:34:43.759Z,-0.50
2018-01-23T02:37:12.215Z,-0.50
2018-01-23T02:39:39.872Z,-0.50
2018-01-23T02:42:07.522Z,-0.50
2018-01-23T02:44:35.229Z,-0.50
2018-01-23T02:47:02.891Z,-0.50
2018-01-23T02:49:30.530Z,-0.50
2018-01-23T02:51:58.139Z,-0.50
2018-01-23T02:54:25.786Z,-0.40
2018-01-23T02:56:53.416Z,-0.40
2018-01-23T02:59:21.086Z,-0.40
2018-01-23T03:01:48.765Z,-0.50
2018-01-23T03:04:16.381Z,-0.40
2018-01-23T03:06:44.799Z,-0.40
2018-01-23T03:09:12.448Z,-0.50
2018-01-23T03:11:40.135Z,-0.40
2018-01-23T03:14:07.785Z,-0.50
2018-01-23T03:16:35.431Z,-0.40
2018-01-23T03:19:03.962Z,-0.50
2018-01-23T03:21:31.977Z,-0.50
2018-01-23T03:23:59.590Z,-0.40
2018-01-23T03:26:27.228Z,-0.40
2018-01-23T03:28:55.652Z,-0.50
2018-01-23T03:31:23.276Z,-0.50
2018-01-23T03:33:51.690Z,-0.40
2018-01-23T03:36:19.317Z,-0.50
2018-01-23T03:38:47.786Z,-0.40
2018-01-23T03:41:15.406Z,-0.50
2018-01-23T03:43:43.043Z,-0.40
2018-01-23T03:46:11.424Z,-0.50
2018-01-23T03:48:39.867Z,-0.40
2018-01-23T03:51:07.513Z,-0.50
2018-01-23T03:53:35.181Z,-0.40
2018-01-23T03:56:03.559Z,-0.40
2018-01-23T03:58:31.187Z,-0.50
2018-01-23T04:00:58.844Z,-0.40
2018-01-23T04:03:26.461Z,-0.40
2018-01-23T04:05:54.138Z,-0.40
2018-01-23T04:08:21.801Z,-0.50
2018-01-23T04:10:49.480Z,-0.50
2018-01-23T04:13:17.323Z,-0.40
2018-01-23T04:15:44.956Z,-0.40
2018-01-23T04:18:12.650Z,-0.40
2018-01-23T04:20:41.066Z,-0.40
2018-01-23T04:23:08.680Z,-0.40
2018-01-23T04:25:37.446Z,-0.40
2018-01-23T04:28:05.090Z,-0.40
2018-01-23T04:30:32.706Z,-0.40
2018-01-23T04:33:01.132Z,-0.40
2018-01-23T04:35:28.804Z,-0.40
2018-01-23T04:37:56.417Z,-0.40
2018-01-23T04:40:24.052Z,-0.40
2018-01-23T04:42:51.739Z,-0.40
2018-01-23T04:45:19.469Z,-0.40
2018-01-23T04:47:47.094Z,-0.40
2018-01-23T04:50:15.517Z,-0.40
2018-01-23T04:52:43.196Z,-0.50
2018-01-23T04:55:10.981Z,-0.40
2018-01-23T04:57:38.630Z,-0.40
2018-01-23T05:00:06.246Z,-0.50
2018-01-23T05:02:34.713Z,-0.40
2018-01-23T05:05:02.491Z,-0.50
2018-01-23T05:07:30.193Z,-0.50
2018-01-23T05:09:59.118Z,-0.50
2018-01-23T05:12:26.732Z,-0.50
2018-01-23T05:14:55.145Z,-0.40
2018-01-23T05:17:22.747Z,-0.50
2018-01-23T05:19:50.416Z,-0.40
2018-01-23T05:22:18.043Z,-0.50
2018-01-23T05:24:45.702Z,-0.40
2018-01-23T05:27:13.439Z,-0.40
2018-01-23T05:29:41.846Z,-0.40
2018-01-23T05:32:10.271Z,-0.40
2018-01-23T05:34:37.956Z,-0.50
2018-01-23T05:37:06.487Z,-0.40
2018-01-23T05:39:34.899Z,-0.40
2018-01-23T05:42:02.665Z,-0.40
2018-01-23T05:44:30.293Z,-0.40
2018-01-23T05:46:58.798Z,-0.50
2018-01-23T05:49:26.445Z,-0.50
2018-01-23T05:51:54.860Z,-0.40
2018-01-23T05:54:22.526Z,-0.50
2018-01-23T05:56:50.134Z,-0.50
2018-01-23T05:59:17.779Z,-0.40
2018-01-23T06:01:45.458Z,-0.40
2018-01-23T06:04:13.132Z,-0.40
2018-01-23T06:06:40.758Z,-0.40
2018-01-23T06:09:08.447Z,-0.40
2018-01-23T06:11:36.051Z,-0.40
2018-01-23T06:14:03.660Z,-0.40
2018-01-23T06:16:31.458Z,-0.40
2018-01-23T06:18:59.704Z,-0.40
2018-01-23T06:21:27.885Z,-0.50
2018-01-23T06:23:55.590Z,-0.50
2018-01-23T06:26:23.235Z,-0.50
2018-01-23T06:28:50.860Z,-0.40
2018-01-23T06:31:19.230Z,-0.40
2018-01-23T06:33:46.876Z,-0.40
2018-01-23T06:36:14.540Z,-0.40
2018-01-23T06:38:42.161Z,-0.40
2018-01-23T06:41:09.825Z,-0.40
2018-01-23T06:43:37.440Z,-0.40
2018-01-23T06:46:05.193Z,-0.40
2018-01-23T06:48:32.829Z,-0.40
2018-01-23T06:51:00.484Z,-0.40
2018-01-23T06:53:28.922Z,-0.40
2018-01-23T06:55:56.551Z,-0.40
2018-01-23T06:58:24.259Z,-0.40
2018-01-23T07:00:51.926Z,-0.40
2018-01-23T07:03:19.537Z,-0.40
2018-01-23T07:05:48.480Z,-0.40
2018-01-23T07:08:16.100Z,-0.40
2018-01-23T07:10:44.481Z,-0.40
2018-01-23T07:13:12.463Z,-0.30
2018-01-23T07:15:40.272Z,-0.30
2018-01-23T07:18:08.214Z,-0.40
2018-01-23T07:20:35.830Z,-0.40
2018-01-23T07:23:03.465Z,-0.30
2018-01-23T07:25:31.089Z,-0.30
2018-01-23T07:28:00.041Z,-0.30
2018-01-23T07:30:27.662Z,-0.30
2018-01-23T07:32:56.049Z,-0.30
2018-01-23T07:35:23.840Z,-0.30
2018-01-23T07:37:51.470Z,-0.30
2018-01-23T07:40:19.872Z,-0.30
2018-01-23T07:42:47.579Z,-0.30
2018-01-23T07:45:15.196Z,-0.20
2018-01-23T07:47:43.607Z,-0.20
2018-01-23T07:50:11.276Z,-0.20
2018-01-23T07:52:38.923Z,-0.20
2018-01-23T07:55:07.287Z,-0.10
2018-01-23T07:57:35.894Z,-0.10
2018-01-23T08:00:03.538Z,-0.20
2018-01-23T08:02:31.919Z,-0.10
2018-01-23T08:04:59.654Z,-0.10
2018-01-23T08:07:27.254Z,-0.10
2018-01-23T08:09:56.057Z,-0.10
2018-01-23T08:12:24.422Z,0.00
2018-01-23T08:14:52.028Z,-0.10
2018-01-23T08:17:19.682Z,0.00
2018-01-23T08:19:47.416Z,0.00
2018-01-23T08:22:15.020Z,0.00
2018-01-23T08:24:42.622Z,0.00
2018-01-23T08:27:10.405Z,0.10
2018-01-23T08:29:38.419Z,0.10
2018-01-23T08:32:07.187Z,0.10
2018-01-23T08:34:34.843Z,0.00
2018-01-23T08:37:02.466Z,0.10
2018-01-23T08:39:30.186Z,0.10
2018-01-23T08:41:57.896Z,0.10
2018-01-23T08:44:25.512Z,0.10
2018-01-23T08:46:53.117Z,0.20
2018-01-23T08:49:21.531Z,0.20
2018-01-23T08:51:49.304Z,0.20
2018-01-23T08:54:16.921Z,0.20
2018-01-23T08:56:44.582Z,0.30
2018-01-23T08:59:12.196Z,0.30
2018-01-23T09:01:39.825Z,0.30
2018-01-23T09:04:08.285Z,0.40
2018-01-23T09:06:35.899Z,0.40
2018-01-23T09:09:03.555Z,0.40
2018-01-23T09:11:31.930Z,0.50
2018-01-23T09:14:00.310Z,0.50
2018-01-23T09:16:29.046Z,0.40
2018-01-23T09:18:56.648Z,0.40
2018-01-23T09:21:24.247Z,0.40
2018-01-23T09:23:51.893Z,0.50
2018-01-23T09:26:20.255Z,0.50
2018-01-23T09:28:47.913Z,0.50
2018-01-23T09:31:15.555Z,0.60
2018-01-23T09:33:43.236Z,0.60
2018-01-23T09:36:10.842Z,0.60
2018-01-23T09:38:39.099Z,0.70
2018-01-23T09:41:06.735Z,0.70
2018-01-23T09:43:34.360Z,0.80
2018-01-23T09:46:02.847Z,0.80
2018-01-23T09:48:31.208Z,0.90
2018-01-23T09:50:58.803Z,0.80
2018-01-23T09:53:26.479Z,0.80
2018-01-23T09:55:54.097Z,0.90
2018-01-23T09:58:21.746Z,0.90
2018-01-23T10:00:49.342Z,1.00
2018-01-23T10:03:18.011Z,1.00
2018-01-23T10:05:45.616Z,1.00
2018-01-23T10:08:14.000Z,1.20
2018-01-23T10:10:42.465Z,1.10
2018-01-23T10:13:10.053Z,1.10
2018-01-23T10:15:38.625Z,1.20
2018-01-23T10:18:06.275Z,1.20
2018-01-23T10:20:33.888Z,1.20
2018-01-23T10:23:01.676Z,1.30
2018-01-23T10:25:29.298Z,1.20
2018-01-23T10:27:56.904Z,1.30
2018-01-23T10:30:24.594Z,1.30
2018-01-23T10:32:52.295Z,1.30
2018-01-23T10:35:19.947Z,1.40
2018-01-23T10:37:47.565Z,1.30
2018-01-23T10:40:15.314Z,1.30
2018-01-23T10:42:43.679Z,1.30
2018-01-23T10:45:11.450Z,1.30
2018-01-23T10:47:39.049Z,1.40
2018-01-23T10:50:07.389Z,1.40
2018-01-23T10:52:34.994Z,1.40
2018-01-23T10:55:03.754Z,1.40
2018-01-23T10:57:31.445Z,1.50
2018-01-23T10:59:59.054Z,1.50
2018-01-23T11:02:26.724Z,1.50
2018-01-23T11:04:54.331Z,1.50
2018-01-23T11:07:22.860Z,1.70
2018-01-23T11:09:50.467Z,1.70
2018-01-23T11:12:18.099Z,1.70
2018-01-23T11:14:45.781Z,1.70
2018-01-23T11:17:13.397Z,1.70
2018-01-23T11:19:41.093Z,1.70
2018-01-23T11:22:08.797Z,1.80
2018-01-23T11:24:36.513Z,1.80
2018-01-23T11:27:04.156Z,1.80
2018-01-23T11:29:32.623Z,2.00
2018-01-23T11:32:00.311Z,2.00
2018-01-23T11:34:28.951Z,2.00
2018-01-23T11:36:56.567Z,1.90
2018-01-23T11:39:24.231Z,2.00
2018-01-23T11:41:51.991Z,2.00
2018-01-23T11:44:20.365Z,1.90
2018-01-23T11:46:48.812Z,2.00
2018-01-23T11:49:16.409Z,2.00
2018-01-23T11:51:44.047Z,2.20
2018-01-23T11:54:11.740Z,2.30
2018-01-23T11:56:39.592Z,2.30
2018-01-23T11:59:07.941Z,2.20
2018-01-23T12:01:35.567Z,2.20
2018-01-23T12:04:03.345Z,2.30
2018-01-23T12:06:31.751Z,2.40
2018-01-23T12:09:00.193Z,2.50
2018-01-23T12:11:27.843Z,2.40
2018-01-23T12:13:55.435Z,2.50
2018-01-23T12:16:23.184Z,2.50
2018-01-23T12:18:50.876Z,2.60
2018-01-23T12:21:18.566Z,2.70
2018-01-23T12:23:46.202Z,2.60
2018-01-23T12:26:13.845Z,2.60
2018-01-23T12:28:41.451Z,2.50
2018-01-23T12:31:09.937Z,2.50
2018-01-23T12:33:37.514Z,2.50
2018-01-23T12:36:05.934Z,2.50
2018-01-23T12:38:33.543Z,2.50
2018-01-23T12:41:01.935Z,2.50
2018-01-23T12:43:29.605Z,2.50
2018-01-23T12:45:58.057Z,2.40
2018-01-23T12:48:25.751Z,2.40
2018-01-23T12:50:53.357Z,2.40
2018-01-23T12:53:20.991Z,2.50
2018-01-23T12:55:49.407Z,2.40
2018-01-23T12:58:17.062Z,2.40
2018-01-23T13:00:44.649Z,2.40
2018-01-23T13:03:12.250Z,2.40
2018-01-23T13:05:39.968Z,2.50
2018-01-23T13:08:07.604Z,2.50
2018-01-23T13:10:35.204Z,2.50
2018-01-23T13:13:03.041Z,2.50
2018-01-23T13:15:31.417Z,2.50
2018-01-23T13:17:59.838Z,2.40
2018-01-23T13:20:27.458Z,2.40
2018-01-23T13:22:55.075Z,2.50
2018-01-23T13:25:22.723Z,2.50
2018-01-23T13:27:50.347Z,2.50
2018-01-23T13:30:17.983Z,2.50
2018-01-23T13:32:45.631Z,2.60
2018-01-23T13:35:14.458Z,2.60
2018-01-23T13:37:42.153Z,2.50
2018-01-23T13:40:09.767Z,2.50
2018-01-23T13:42:37.443Z,2.50
2018-01-23T13:45:05.050Z,2.50
2018-01-23T13:47:32.716Z,2.50
2018-01-23T13:50:00.374Z,2.60
2018-01-23T13:52:27.992Z,2.60
2018-01-23T13:54:55.736Z,2.60
2018-01-23T13:57:24.126Z,2.60
2018-01-23T13:59:52.582Z,2.60
2018-01-23T14:02:20.341Z,2.60
2018-01-23T14:04:47.932Z,2.50
2018-01-23T14:07:15.601Z,2.60
2018-01-23T14:09:43.216Z,2.50
2018-01-23T14:12:10.866Z,2.50
2018-01-23T14:14:38.506Z,2.60
2018-01-23T14:17:06.896Z,2.60
2018-01-23T14:19:35.340Z,2.60
2018-01-23T14:22:03.079Z,2.60
2018-01-23T14:24:30.778Z,2.60
2018-01-23T14:26:58.488Z,2.70
2018-01-23T14:29:26.098Z,2.60
2018-01-23T14:31:53.789Z,2.60
2018-01-23T14:34:21.442Z,2.70
2018-01-23T14:36:49.934Z,2.70
2018-01-23T14:39:17.554Z,2.70
2018-01-23T14:41:45.285Z,2.70
2018-01-23T14:44:12.934Z,2.70
2018-01-23T14:46:41.370Z,2.60
2018-01-23T14:49:08.999Z,2.60
2018-01-23T14:51:37.374Z,2.50
2018-01-23T14:54:05.788Z,2.60
2018-01-23T14:56:33.419Z,2.60
2018-01-23T14:59:02.137Z,2.70
2018-01-23T15:01:29.727Z,2.60
2018-01-23T15:03:57.398Z,2.70
2018-01-23T15:06:25.021Z,2.70
2018-01-23T15:08:53.420Z,2.70
2018-01-23T15:11:21.056Z,2.70
2018-01-23T15:13:48.683Z,2.70
2018-01-23T15:16:16.301Z,2.60
2018-01-23T15:18:44.705Z,2.60
2018-01-23T15:21:12.329Z,2.60
2018-01-23T15:23:39.999Z,2.60
2018-01-23T15:26:07.606Z,2.60
2018-01-23T15:28:35.381Z,2.60
2018-01-23T15:31:02.999Z,2.50
2018-01-23T15:33:30.599Z,2.50
2018-01-23T15:35:58.234Z,2.50
2018-01-23T15:38:25.879Z,2.50
2018-01-23T15:40:53.522Z,2.50
2018-01-23T15:43:21.182Z,2.50
2018-01-23T15:45:48.777Z,2.50
2018-01-23T15:48:16.666Z,2.50
2018-01-23T15:50:44.282Z,2.50
2018-01-23T15:53:11.887Z,2.50
2018-01-23T15:55:39.522Z,2.50
2018-01-23T15:58:07.117Z,2.50
2018-01-23T16:00:34.715Z,2.50
2018-01-23T16:03:03.138Z,2.50
2018-01-23T16:05:30.741Z,2.40
2018-01-23T16:07:58.388Z,2.50
2018-01-23T16:10:26.001Z,2.50
2018-01-23T16:12:54.366Z,2.40
2018-01-23T16:15:22.042Z,2.40
2018-01-23T16:17:49.675Z,2.40
2018-01-23T16:20:17.263Z,2.40
2018-01-23T16:22:44.920Z,2.40
2018-01-23T16:25:12.550Z,2.40
2018-01-23T16:27:40.192Z,2.40
2018-01-23T16:30:08.575Z,2.40
2018-01-23T16:32:37.086Z,2.40
2018-01-23T16:35:05.506Z,2.40
2018-01-23T16:37:33.113Z,2.40
2018-01-23T16:40:00.738Z,2.40
2018-01-23T16:42:28.337Z,2.40
2018-01-23T16:44:56.755Z,2.40
2018-01-23T16:47:24.367Z,2.40
2018-01-23T16:49:52.021Z,2.40
2018-01-23T16:52:19.702Z,2.40
2018-01-23T16:54:48.098Z,2.40
2018-01-23T16:57:16.476Z,2.40
2018-01-23T16:59:44.988Z,2.40
2018-01-23T17:02:12.636Z,2.40
2018-01-23T17:04:41.038Z,2.40
2018-01-23T17:07:09.451Z,2.40
2018-01-23T17:09:37.157Z,2.40
2018-01-23T17:12:04.838Z,2.50
2018-01-23T17:14:33.304Z,2.50
2018-01-23T17:17:01.089Z,2.50
2018-01-23T17:19:29.459Z,2.50
2018-01-23T17:21:57.080Z,2.50
2018-01-23T17:24:24.771Z,2.50
2018-01-23T17:26:52.372Z,2.50
2018-01-23T17:29:20.754Z,2.60
2018-01-23T17:31:49.124Z,2.60
2018-01-23T17:34:16.819Z,2.60
2018-01-23T17:36:44.432Z,2.50
2018-01-23T17:39:12.077Z,2.50
2018-01-23T17:41:40.486Z,2.60
2018-01-23T17:44:08.165Z,2.60
2018-01-23T17:46:35.805Z,2.60
2018-01-23T17:49:03.470Z,2.60
2018-01-23T17:51:31.137Z,2.60
2018-01-23T17:53:58.749Z,2.60
2018-01-23T17:56:26.399Z,2.60
2018-01-23T17:58:54.033Z,2.70
2018-01-23T18:01:21.738Z,2.70
2018-01-23T18:03:49.379Z,2.70
2018-01-23T18:06:17.048Z,2.80
2018-01-23T18:08:44.704Z,2.80
2018-01-23T18:11:12.923Z,2.80
2018-01-23T18:13:40.586Z,2.80
2018-01-23T18:16:08.339Z,2.90
2018-01-23T18:18:36.040Z,2.80
2018-01-23T18:21:03.648Z,2.90
2018-01-23T18:23:31.292Z,2.90
2018-01-23T18:25:58.960Z,2.90
2018-01-23T18:28:26.638Z,2.90
2018-01-23T18:30:54.412Z,2.90
2018-01-23T18:33:22.067Z,3.00
2018-01-23T18:35:49.816Z,3.00
2018-01-23T18:38:18.183Z,3.00
2018-01-23T18:40:45.823Z,3.00
2018-01-23T18:43:13.590Z,3.00
2018-01-23T18:45:43.500Z,3.10
2018-01-23T18:48:11.152Z,3.10
2018-01-23T18:50:38.768Z,3.10
2018-01-23T18:53:06.574Z,3.10
2018-01-23T18:55:34.224Z,3.00
2018-01-23T18:58:02.614Z,3.00
2018-01-23T19:00:30.404Z,2.90
2018-01-23T19:02:58.105Z,3.00
2018-01-23T19:05:25.991Z,2.90
2018-01-23T19:07:54.147Z,3.00
2018-01-23T19:10:21.944Z,3.00
2018-01-23T19:12:50.505Z,2.90
2018-01-23T19:15:18.175Z,2.90
2018-01-23T19:17:45.866Z,2.90
2018-01-23T19:20:13.910Z,3.00
2018-01-23T19:22:41.506Z,2.90
2018-01-23T19:25:09.176Z,3.00
2018-01-23T19:27:37.642Z,3.00
2018-01-23T19:30:05.287Z,3.00
2018-01-23T19:32:33.695Z,3.00
2018-01-23T19:35:01.455Z,3.10
2018-01-23T19:37:29.155Z,3.10
2018-01-23T19:39:56.759Z,3.10
2018-01-23T19:42:24.513Z,3.10
2018-01-23T19:44:53.266Z,3.20
2018-01-23T19:47:20.921Z,3.20
2018-01-23T19:49:48.524Z,3.20
2018-01-23T19:52:17.139Z,3.30
2018-01-23T19:54:49.198Z,3.30
2018-01-23T19:57:16.897Z,3.20
2018-01-23T19:59:44.560Z,3.20
2018-01-23T20:02:12.182Z,3.20
2018-01-23T20:04:39.851Z,3.20
2018-01-23T20:07:07.576Z,3.10
2018-01-23T20:09:35.998Z,3.20
2018-01-23T20:12:03.649Z,3.10
2018-01-23T20:14:31.315Z,3.20
2018-01-23T20:16:58.984Z,3.20
2018-01-23T20:19:26.620Z,3.20
2018-01-23T20:21:54.260Z,3.20
2018-01-23T20:24:21.911Z,3.10
2018-01-23T20:26:49.605Z,3.20
2018-01-23T20:29:18.070Z,3.30
2018-01-23T20:31:45.868Z,3.20
2018-01-23T20:34:13.520Z,3.30
2018-01-23T20:36:41.917Z,3.40
2018-01-23T20:39:09.579Z,3.30
2018-01-23T20:41:37.944Z,3.40
2018-01-23T20:44:05.569Z,3.40
2018-01-23T20:46:33.237Z,3.40
2018-01-23T20:49:00.864Z,3.40
2018-01-23T20:51:29.230Z,3.50
2018-01-23T20:53:57.693Z,3.50
2018-01-23T20:56:25.316Z,3.50
2018-01-23T20:58:53.016Z,3.50
2018-01-23T21:01:20.662Z,3.60
2018-01-23T21:03:48.304Z,3.50
2018-01-23T21:06:15.985Z,3.50
2018-01-23T21:08:43.617Z,3.60
2018-01-23T21:11:12.077Z,3.60
2018-01-23T21:13:39.701Z,3.60
2018-01-23T21:16:07.363Z,3.60
2018-01-23T21:18:34.981Z,3.60
2018-01-23T21:21:02.659Z,3.70
2018-01-23T21:23:30.307Z,3.70
2018-01-23T21:25:57.984Z,3.70
2018-01-23T21:28:25.619Z,3.80
2018-01-23T21:30:53.280Z,3.80
2018-01-23T21:33:20.981Z,3.80
2018-01-23T21:35:49.673Z,3.80
2018-01-23T21:38:17.454Z,3.80
2018-01-23T21:40:45.229Z,3.80
2018-01-23T21:43:13.718Z,3.80
2018-01-23T21:45:42.207Z,3.90
2018-01-23T21:48:09.983Z,3.80
2018-01-23T21:50:38.344Z,4.00
2018-01-23T21:53:05.993Z,4.00
2018-01-23T21:55:33.698Z,4.00
2018-01-23T21:58:02.063Z,4.10
2018-01-23T22:00:29.814Z,4.00
2018-01-23T22:02:57.456Z,4.10
2018-01-23T22:05:25.141Z,4.00
2018-01-23T22:07:52.738Z,4.10
2018-01-23T22:10:20.417Z,4.10
2018-01-23T22:12:48.915Z,4.10
2018-01-23T22:15:16.618Z,4.10
2018-01-23T22:17:44.331Z,4.20
2018-01-23T22:20:12.696Z,4.10
2018-01-23T22:22:40.347Z,4.10
2018-01-23T22:25:08.003Z,4.10
2018-01-23T22:27:35.594Z,4.10
2018-01-23T22:30:03.233Z,4.20
2018-01-23T22:32:30.862Z,4.10
2018-01-23T22:34:59.314Z,4.10
2018-01-23T22:37:26.949Z,4.10
2018-01-23T22:39:54.619Z,4.10
2018-01-23T22:42:22.844Z,4.10
2018-01-23T22:44:51.248Z,4.10
2018-01-23T22:47:18.863Z,4.10
2018-01-23T22:49:46.542Z,4.10
2018-01-23T22:52:14.142Z,4.10
2018-01-23T22:54:42.546Z,4.10
2018-01-23T22:57:10.132Z,4.10
2018-01-23T22:59:37.759Z,4.10
2018-01-23T23:02:05.364Z,4.10
2018-01-23T23:04:33.110Z,4.20
2018-01-23T23:07:00.735Z,4.20
2018-01-23T23:09:28.329Z,4.20
2018-01-23T23:11:55.967Z,4.20
2018-01-23T23:14:23.566Z,4.20
2018-01-23T23:16:51.179Z,4.20
2018-01-23T23:19:18.824Z,4.20
2018-01-23T23:21:46.454Z,4.20
2018-01-23T23:24:14.844Z,4.30
2018-01-23T23:26:42.564Z,4.20
2018-01-23T23:29:10.211Z,4.20
2018-01-23T23:31:37.800Z,4.30
2018-01-23T23:34:05.450Z,4.30
2018-01-23T23:36:33.055Z,4.30
2018-01-23T23:39:01.567Z,4.30
2018-01-23T23:41:29.157Z,4.30
2018-01-23T23:43:56.768Z,4.40
2018-01-23T23:46:24.419Z,4.40
2018-01-23T23:48:52.151Z,4.30
2018-01-23T23:51:20.130Z,4.30
2018-01-23T23:53:47.792Z,4.40
2018-01-23T23:56:15.384Z,4.40
2018-01-23T23:58:43.069Z,4.40
